Terminal Aerodrome Forecast
Issued by NWS Bismarck, ND

Home | Current Version | Previous Version | Text Only | Print | Product List | Glossary Off
Versions: 1 2 3 4 5 6 7 8 9 10 11 12 13 14 15

000
FTUS43 KBIS 221700
TAFBIS
TAF
KBIS 221729Z 2218/2318 03004KT P6SM SKC
     FM230500 09006KT P6SM FEW240
     FM231700 13011KT P6SM FEW210=

USA.gov is the U.S. government's official web portal to all federal, state and local government web resources and services.